Portada
METAR-TAF:

METAR-TAF

Aeroports :

Aeroport de Moulay Ali Cherif

Rachidia, Marroc

latitud: 31-56N, longitud: 004-24W, altitud: 1034 m

Observació

L'informe es va fer fa 32 minuts, a les 09:00 UTC
Vent 4 kt del Est/Nord-Est, variant entre Nord i Est/Sud-Est
Temperatura 28°C
Humitat 20%
Pressió 1025 hPa
Visibilitat: 8000 m

METAR: GMFK 260900Z 06004KT 010V120 8000 NSC 28/03 Q1025 NOSIG

Hora: 10:32 (09:32 UTC)

Pronòstic

L'informe es va fer fa 4 hores i 32 minuts, a les 05:00 UTC
Pronòstic vàlid del 26 a les 06 UTC al 27 a les 12 UTC
Vent 5 kt del Sud
Visibilitat: 7000 m
Probabilitat 40% :
Temporalment
l' 26 a les 16 UTC al 26 a les 21 UTC
Vent 16 kt del Nord-Oest amb ràfegues de 30 kt
Núvols disperses a una alçada de 3000 ft
Escasses núvols a una alçada de 4000 ft, Cumulonimbus.
tempesta

TAF: GMFK 260500Z 2606/2712 18005KT 7000 NSC PROB40 TEMPO 2616/2621 31016G30KT TS SCT030 FEW040CB

Observacions i pronòstics meteorològics de més de 4000 aeroports (METAR i TAF).

Les estacions disponibles són els punts grocs i vermells al mapa.

Posi el ratolí al punt desitjat per veure el nom de l'estació.

Feu clic per veure les observacions i els pronòstics meteorològics.

Per canviar el mapa: feu clic els botons verds amb una creu de color negre per apropar; al botó verd amb un guió per allunyar la imatge; o en les fletxes verdes per a mapes adjacents.


METAR-TAF: